Time;durP1;ratioP1;P1;durP2;ratioP2;P2;SDS_P1;SDS_P2;PMS_P1;PMS_P2;Temp;Humidity;BMP_temperature;BMP_pressure;BME280_temperature;BME280_humidity;BME280_pressure;Samples;Min_cycle;Max_cycle;Signal;HPM_P1;HPM_P2
2022/08/10 00:00:19;;;;;;;14.20;9.00;;;;;;;24.31;46.75;99071.56;5054224;28;20194;-83
2022/08/10 00:02:15;;;;;;;10.83;8.53;;;;;;;24.68;46.80;99114.03;5054157;28;20200;-84
2022/08/10 00:04:40;;;;;;;12.30;8.77;;;;;;;24.68;46.70;99134.75;5054511;28;20226;-84
2022/08/10 00:07:05;;;;;;;10.00;8.33;;;;;;;24.83;46.34;99126.72;5053960;28;20219;-85
2022/08/10 00:09:31;;;;;;;10.27;8.67;;;;;;;24.92;46.36;99131.75;5054271;28;20169;-85
2022/08/10 00:11:56;;;;;;;10.80;8.63;;;;;;;24.22;47.14;99041.53;5053979;28;20169;-83
2022/08/10 00:14:22;;;;;;;11.90;8.50;;;;;;;24.50;47.52;99109.19;5053840;28;20634;-83
2022/08/10 00:16:47;;;;;;;10.83;8.13;;;;;;;23.63;47.53;98946.78;5054234;28;20169;-83
2022/08/10 00:19:13;;;;;;;12.10;8.67;;;;;;;24.00;47.32;99027.19;5037191;28;20229;-82
2022/08/10 00:21:39;;;;;;;14.00;8.60;;;;;;;24.61;47.68;99123.63;5054295;28;20188;-82
2022/08/10 00:24:05;;;;;;;11.50;8.70;;;;;;;24.08;47.55;99012.41;5054473;28;20730;-82
2022/08/10 00:26:30;;;;;;;10.43;8.37;;;;;;;24.33;47.59;99064.63;5054538;28;20600;-82
2022/08/10 00:28:55;;;;;;;10.57;8.53;;;;;;;24.32;47.62;99088.78;5036551;28;20169;-82
2022/08/10 00:31:21;;;;;;;11.43;8.27;;;;;;;24.08;47.78;99043.44;5036335;28;20172;-82
2022/08/10 00:33:46;;;;;;;10.97;8.57;;;;;;;24.56;48.03;99130.63;5054311;28;20184;-83
2022/08/10 00:36:12;;;;;;;12.50;8.70;;;;;;;24.61;47.64;99134.00;5055224;28;20176;-82
2022/08/10 00:38:38;;;;;;;11.27;9.00;;;;;;;24.52;48.23;99133.31;5054662;28;20218;-82
2022/08/10 00:41:03;;;;;;;12.20;8.43;;;;;;;24.33;48.82;99132.75;5056079;28;20623;-83
2022/08/10 00:43:29;;;;;;;11.73;9.13;;;;;;;23.73;49.31;99033.66;5054004;28;20204;-83
2022/08/10 00:45:54;;;;;;;12.07;9.10;;;;;;;24.35;49.23;99136.16;5054115;28;20558;-83
2022/08/10 00:48:20;;;;;;;11.77;8.63;;;;;;;24.32;49.44;99133.63;5054564;28;20173;-83
2022/08/10 00:50:46;;;;;;;11.63;8.87;;;;;;;24.24;49.51;99135.47;5053752;28;20209;-83
2022/08/10 00:53:11;;;;;;;12.57;9.50;;;;;;;23.76;51.21;99092.22;5054444;28;20214;-82
2022/08/10 00:55:37;;;;;;;10.77;9.63;;;;;;;23.69;53.38;99129.34;5053770;28;20169;-83
2022/08/10 00:58:02;;;;;;;11.80;9.37;;;;;;;23.76;52.25;99128.41;5053329;28;20552;-83
2022/08/10 01:00:28;;;;;;;12.70;9.40;;;;;;;22.88;51.21;98975.34;5052887;28;20719;-82
2022/08/10 01:02:54;;;;;;;13.47;9.37;;;;;;;24.00;50.95;99128.06;5035589;28;20180;-83
2022/08/10 01:05:20;;;;;;;13.67;9.90;;;;;;;23.94;51.65;99116.06;5053365;28;20752;-83
2022/08/10 01:08:04;;;;;;;12.73;9.00;;;;;;;23.91;51.18;99110.09;5053275;28;20659;-83
2022/08/10 01:10:57;;;;;;;12.43;9.07;;;;;;;23.89;50.62;99107.53;5053723;28;20173;-83
2022/08/10 01:13:50;;;;;;;12.50;8.77;;;;;;;23.25;50.26;98980.03;5053231;28;20173;-83
2022/08/10 01:16:29;;;;;;;11.90;8.90;;;;;;;23.99;50.00;99096.16;5052624;28;20225;-83
2022/08/10 01:19:19;;;;;;;12.67;8.90;;;;;;;24.14;49.88;99117.53;5053545;28;20204;-83
2022/08/10 01:22:10;;;;;;;9.97;8.63;;;;;;;24.16;49.77;99115.78;5053108;28;20243;-83
2022/08/10 01:24:51;;;;;;;17.43;9.63;;;;;;;24.00;49.60;99079.78;5053130;28;20185;-83
2022/08/10 01:27:39;;;;;;;11.30;8.80;;;;;;;24.19;49.59;99110.56;5053315;28;20596;-83
2022/08/10 01:30:10;;;;;;;13.07;8.80;;;;;;;24.14;49.40;99107.19;5053308;28;20278;-83
2022/08/10 01:32:43;;;;;;;10.13;8.37;;;;;;;24.05;49.74;99082.28;5035147;28;20192;-82
2022/08/10 01:35:21;;;;;;;13.63;8.90;;;;;;;23.86;49.18;99037.75;5052623;28;20171;-84
2022/08/10 01:38:01;;;;;;;10.23;8.37;;;;;;;24.26;49.39;99088.88;5056690;28;20170;-82
2022/08/10 01:40:30;;;;;;;10.27;8.50;;;;;;;23.38;49.14;98940.28;5058624;28;20698;-83
2022/08/10 01:43:01;;;;;;;10.20;8.13;;;;;;;23.84;48.92;99023.97;5058256;28;20161;-83
2022/08/10 01:45:28;;;;;;;10.87;8.03;;;;;;;23.67;48.89;99000.13;5057600;28;20169;-82
2022/08/10 01:50:44;;;;;;;10.77;7.93;;;;;;;24.13;48.75;99070.13;5057111;28;20270;-83
2022/08/10 01:53:21;;;;;;;11.20;7.67;;;;;;;23.97;48.47;99045.34;5057212;28;20197;-82
2022/08/10 01:55:49;;;;;;;10.63;7.73;;;;;;;23.84;48.88;99023.97;5058044;28;20210;-82
2022/08/10 01:58:17;;;;;;;8.33;7.23;;;;;;;24.19;48.16;99054.50;5056757;28;20165;-82
2022/08/10 02:00:46;;;;;;;8.47;7.20;;;;;;;24.25;47.98;99069.06;5056525;28;20288;-83
2022/08/10 02:03:14;;;;;;;8.57;7.67;;;;;;;24.34;47.44;99061.13;5056740;28;20177;-82
2022/08/10 02:05:43;;;;;;;8.27;7.30;;;;;;;24.48;47.50;99077.28;5055927;28;20170;-83
2022/08/10 02:08:13;;;;;;;9.80;7.53;;;;;;;24.54;47.52;99090.13;5056255;28;20176;-85
2022/08/10 02:10:42;;;;;;;9.23;7.30;;;;;;;24.54;47.58;99082.34;5056179;28;20178;-83
2022/08/10 02:13:10;;;;;;;8.30;7.20;;;;;;;24.54;47.55;99082.34;5056333;28;20207;-82
2022/08/10 02:15:38;;;;;;;9.50;7.37;;;;;;;24.37;47.61;99058.50;5056410;28;20161;-83
2022/08/10 02:18:05;;;;;;;10.37;7.20;;;;;;;24.39;47.39;99051.59;5056638;28;20162;-83
2022/08/10 02:20:39;;;;;;;9.00;7.23;;;;;;;23.25;47.19;98876.72;5055856;28;20299;-82
2022/08/10 02:23:16;;;;;;;9.07;7.13;;;;;;;24.33;47.63;99082.72;5055755;28;20173;-82
2022/08/10 02:25:43;;;;;;;9.47;7.20;;;;;;;24.39;47.67;99077.47;5055665;28;20207;-82
2022/08/10 02:28:13;;;;;;;10.47;7.57;;;;;;;24.30;47.62;99086.22;5055764;28;20660;-83
2022/08/10 02:30:40;;;;;;;9.97;7.30;;;;;;;23.96;47.93;99044.47;5055626;28;20192;-82
2022/08/10 02:33:06;;;;;;;9.10;7.70;;;;;;;24.17;48.06;99086.44;5056594;28;20177;-82
2022/08/10 02:35:33;;;;;;;9.47;7.07;;;;;;;23.52;49.08;99013.28;5055975;28;20200;-82
2022/08/10 02:38:04;;;;;;;9.40;7.10;;;;;;;23.89;49.03;99063.56;5056323;28;20653;-83
2022/08/10 02:40:34;;;;;;;9.30;7.60;;;;;;;23.37;48.80;98954.03;5056187;28;20229;-83
2022/08/10 02:43:18;;;;;;;8.53;6.90;;;;;;;23.90;49.06;99069.56;5056606;28;20204;-83
2022/08/10 02:45:48;;;;;;;9.43;6.97;;;;;;;23.75;49.09;99007.78;5055596;28;20354;-82
2022/08/10 02:48:23;;;;;;;11.17;7.10;;;;;;;24.25;48.62;99090.63;5056224;28;20173;-83
2022/08/10 02:51:04;;;;;;;12.03;7.20;;;;;;;23.89;48.58;99050.66;5055921;28;20228;-83
2022/08/10 02:53:34;;;;;;;10.20;7.00;;;;;;;24.21;48.89;99103.63;5056047;28;20704;-82
2022/08/10 02:56:06;;;;;;;10.10;7.27;;;;;;;24.19;48.39;99100.22;5056503;28;20169;-84
2022/08/10 02:58:43;;;;;;;9.30;7.07;;;;;;;24.43;47.80;99107.56;5056507;28;20231;-83
2022/08/10 03:01:14;;;;;;;10.20;7.10;;;;;;;24.01;48.29;99047.00;5055991;28;20192;-83
2022/08/10 03:03:51;;;;;;;8.20;6.87;;;;;;;24.30;48.23;99090.53;5056177;28;20162;-83
2022/08/10 03:06:20;;;;;;;10.20;6.83;;;;;;;21.94;47.96;98696.25;5054816;28;20173;-84
2022/08/10 03:08:48;;;;;;;10.00;6.87;;;;;;;24.35;48.40;99117.19;5037854;28;20495;-82
2022/08/10 03:11:26;;;;;;;11.83;7.50;;;;;;;24.26;48.54;99118.19;5054834;28;20181;-84
2022/08/10 03:13:56;;;;;;;11.60;7.07;;;;;;;24.19;48.94;99119.19;5055008;28;20165;-82
2022/08/10 03:16:22;;;;;;;9.63;6.77;;;;;;;23.71;48.86;99053.47;5054790;28;20493;-82
2022/08/10 03:18:48;;;;;;;8.27;7.30;;;;;;;24.15;48.64;99120.09;5037529;28;20215;-83
2022/08/10 03:21:16;;;;;;;10.60;6.90;;;;;;;24.28;48.51;99123.34;5037484;28;20303;-82
2022/08/10 03:23:44;;;;;;;10.80;7.27;;;;;;;24.18;48.79;99126.94;5055127;28;20196;-82
2022/08/10 03:26:11;;;;;;;9.77;7.00;;;;;;;24.20;48.64;99128.63;5055201;28;20320;-82
2022/08/10 03:28:37;;;;;;;8.47;7.00;;;;;;;24.11;48.37;99108.09;5055163;28;20538;-83
2022/08/10 03:31:03;;;;;;;10.87;7.03;;;;;;;23.72;48.74;99049.19;5055033;28;20580;-84
2022/08/10 03:33:32;;;;;;;10.03;7.30;;;;;;;24.21;49.08;99137.25;5055124;28;20184;-82
2022/08/10 03:35:58;;;;;;;8.93;7.03;;;;;;;24.16;48.87;99133.88;5036974;28;20278;-84
2022/08/10 03:38:24;;;;;;;9.33;6.77;;;;;;;24.01;48.74;99094.41;5036955;28;20188;-83
2022/08/10 03:40:52;;;;;;;9.33;7.03;;;;;;;24.00;48.43;99084.09;5055662;28;20189;-83
2022/08/10 03:43:20;;;;;;;8.80;7.03;;;;;;;24.46;48.55;99141.16;5054944;28;20602;-83
2022/08/10 03:45:53;;;;;;;10.53;7.17;;;;;;;24.15;48.65;99085.59;5054967;28;20162;-83
2022/08/10 03:48:21;;;;;;;10.10;7.10;;;;;;;24.39;49.17;99137.81;5054701;28;20174;-83
2022/08/10 03:50:49;;;;;;;11.47;7.13;;;;;;;24.43;49.12;99143.81;5033519;28;20635;-83
2022/08/10 03:53:16;;;;;;;9.10;7.17;;;;;;;23.91;49.39;99076.47;5034815;28;20185;-83
2022/08/10 03:55:42;;;;;;;10.47;7.10;;;;;;;24.40;49.50;99143.84;5033771;28;20182;-83
2022/08/10 03:58:08;;;;;;;10.90;7.50;;;;;;;24.28;49.44;99149.22;5034515;28;20174;-83
2022/08/10 04:00:34;;;;;;;10.53;7.10;;;;;;;24.31;49.58;99149.19;5033948;28;20225;-83
2022/08/10 04:03:04;;;;;;;10.30;7.13;;;;;;;24.13;49.79;99152.03;5035387;28;20170;-83
2022/08/10 04:05:33;;;;;;;10.23;7.00;;;;;;;23.66;49.97;99081.13;5037301;28;20170;-83
2022/08/10 04:07:59;;;;;;;12.23;7.50;;;;;;;24.11;50.19;99146.03;5037944;28;20206;-84
2022/08/10 04:10:26;;;;;;;15.80;7.00;;;;;;;23.93;50.22;99123.84;5036417;28;20209;-82
2022/08/10 04:12:51;;;;;;;10.50;7.73;;;;;;;24.05;49.98;99145.22;5018547;28;20237;-83
2022/08/10 04:15:17;;;;;;;13.13;7.53;;;;;;;24.28;50.18;99159.59;5033356;28;20193;-83
2022/08/10 04:17:42;;;;;;;11.37;7.10;;;;;;;24.24;49.91;99157.91;5031500;28;20178;-83
2022/08/10 04:20:16;;;;;;;10.23;7.00;;;;;;;24.23;50.24;99156.22;5032103;28;20240;-83
2022/08/10 04:22:44;;;;;;;13.00;6.83;;;;;;;24.20;50.00;99130.38;5034497;28;20182;-84
2022/08/10 04:25:12;;;;;;;14.63;6.93;;;;;;;23.93;50.23;99093.66;5033632;28;20182;-83
2022/08/10 04:27:37;;;;;;;11.40;7.23;;;;;;;24.37;50.03;99155.09;5032568;28;20178;-82
2022/08/10 04:30:03;;;;;;;12.27;6.70;;;;;;;23.94;50.03;99089.34;5034896;28;20191;-83
2022/08/10 04:32:30;;;;;;;10.20;6.50;;;;;;;24.30;49.72;99148.31;5035407;28;20182;-82
2022/08/10 04:34:57;;;;;;;10.20;6.97;;;;;;;24.24;50.04;99119.09;5031052;28;20214;-82
2022/08/10 04:37:24;;;;;;;9.73;6.67;;;;;;;24.03;49.72;99096.97;5032213;28;20182;-81
2022/08/10 04:39:50;;;;;;;10.17;6.60;;;;;;;24.38;49.70;99136.13;5033716;28;20202;-86
2022/08/10 04:42:16;;;;;;;9.37;6.87;;;;;;;23.02;49.86;98889.97;5034285;28;20193;-87
2022/08/10 04:44:55;;;;;;;9.27;7.00;;;;;;;24.04;49.65;99060.72;5032841;28;20700;-88
2022/08/10 04:47:21;;;;;;;12.57;6.70;;;;;;;22.31;49.30;98765.34;5023874;28;20188;-88
2022/08/10 04:49:46;;;;;;;9.80;6.97;;;;;;;24.87;48.42;99156.88;5026620;28;20214;-87
2022/08/10 04:52:13;;;;;;;9.60;6.70;;;;;;;21.97;48.41;98680.75;5030110;28;20190;-88
2022/08/10 04:54:38;;;;;;;12.00;6.90;;;;;;;25.05;48.70;99169.50;5025002;28;20182;-87
2022/08/10 04:57:04;;;;;;;8.03;6.90;;;;;;;25.13;48.22;99172.81;5024190;28;20229;-88
2022/08/10 04:59:29;;;;;;;9.87;6.87;;;;;;;24.71;48.07;99076.88;5024130;28;20179;-88
2022/08/10 05:01:55;;;;;;;10.57;6.97;;;;;;;23.81;48.29;98893.91;5020449;28;20849;-87
2022/08/10 05:04:20;;;;;;;11.03;6.73;;;;;;;23.60;48.00;98886.50;5045407;28;20185;-85
2022/08/10 05:06:46;;;;;;;8.00;6.87;;;;;;;25.13;47.88;99136.53;5037049;28;20182;-87
2022/08/10 05:09:11;;;;;;;9.67;6.43;;;;;;;23.76;47.79;98880.22;5033819;28;20185;-87
2022/08/10 05:11:36;;;;;;;9.13;6.83;;;;;;;25.05;46.66;99062.47;5034867;28;20221;-85
2022/08/10 05:14:02;;;;;;;9.00;6.60;;;;;;;25.36;47.45;99156.81;5020015;28;20230;-87
2022/08/10 05:16:27;;;;;;;11.17;7.20;;;;;;;25.23;47.37;99125.13;5026439;28;20239;-88
2022/08/10 05:18:53;;;;;;;9.40;7.10;;;;;;;25.47;47.65;99154.03;5028408;28;20182;-86
2022/08/10 05:21:18;;;;;;;10.23;7.13;;;;;;;24.57;47.66;98986.53;5022743;28;20980;-86
2022/08/10 05:23:43;;;;;;;11.27;7.10;;;;;;;25.45;47.40;99078.03;5028763;28;20178;-86
2022/08/10 05:26:09;;;;;;;10.00;6.80;;;;;;;25.37;47.06;99057.44;5025468;28;20192;-85
2022/08/10 05:28:34;;;;;;;9.97;6.57;;;;;;;25.47;47.11;99076.28;5027056;28;20192;-87
2022/08/10 05:31:00;;;;;;;10.07;7.17;;;;;;;25.90;47.14;99164.38;5026206;28;20182;-88
2022/08/10 05:33:25;;;;;;;8.27;6.60;;;;;;;25.94;47.13;99155.63;5027725;28;20187;-87
2022/08/10 05:35:51;;;;;;;9.07;6.73;;;;;;;25.38;47.90;99084.22;5029362;28;20382;-89
2022/08/10 05:38:19;;;;;;;7.97;6.47;;;;;;;26.00;46.78;99156.38;5022440;28;20659;-87
2022/08/10 05:40:45;;;;;;;9.27;6.80;;;;;;;25.33;46.60;99011.72;5021657;28;20198;-87
2022/08/10 05:43:11;;;;;;;7.67;6.23;;;;;;;26.04;46.60;99160.59;5022143;28;20273;-87
2022/08/10 05:45:36;;;;;;;10.33;6.43;;;;;;;26.05;46.86;99159.72;5025741;28;20634;-86
2022/08/10 05:48:02;;;;;;;11.37;6.97;;;;;;;25.61;46.36;99058.69;5023445;28;20181;-86
2022/08/10 05:50:29;;;;;;;10.23;6.60;;;;;;;26.24;46.24;99163.63;5032614;28;20789;-87
2022/08/10 05:52:55;;;;;;;12.70;7.23;;;;;;;26.13;46.60;99151.75;5044204;28;20220;-87
2022/08/10 05:55:22;;;;;;;9.13;7.00;;;;;;;26.22;45.77;99130.81;5046652;28;20617;-85
2022/08/10 05:57:49;;;;;;;10.70;7.60;;;;;;;26.30;46.48;99166.09;5044002;28;20166;-86
2022/08/10 06:00:19;;;;;;;11.07;7.67;;;;;;;25.38;47.13;99024.63;5027247;28;20607;-87
2022/08/10 06:02:48;;;;;;;10.20;7.30;;;;;;;26.29;47.36;99169.56;5044486;28;20177;-87
2022/08/10 06:05:23;;;;;;;9.73;7.30;;;;;;;25.27;47.39;98993.75;5044774;28;20178;-85
2022/08/10 06:08:14;;;;;;;8.87;6.63;;;;;;;26.34;46.84;99165.09;5043281;28;20233;-86
2022/08/10 06:10:40;;;;;;;9.63;7.20;;;;;;;25.70;46.17;99004.03;5043390;28;20184;-88
2022/08/10 06:15:53;;;;;;;11.07;7.57;;;;;;;26.78;46.33;99171.00;5031479;28;20647;-86
2022/08/10 06:18:19;;;;;;;11.57;7.70;;;;;;;26.91;46.14;99144.66;5031610;28;20167;-87
2022/08/10 06:20:46;;;;;;;10.25;7.28;;;;;;;27.44;45.27;99160.59;5035650;28;20804;-87
2022/08/10 06:23:12;;;;;;;11.05;7.07;;;;;;;26.33;45.16;98978.25;5021379;28;20192;-87
2022/08/10 06:25:50;;;;;;;12.55;6.97;;;;;;;25.34;45.12;98826.00;5024870;28;20184;-87
2022/08/10 06:28:18;;;;;;;10.73;7.03;;;;;;;26.97;44.64;99052.72;5014563;28;20192;-87
2022/08/10 06:30:46;;;;;;;10.52;7.32;;;;;;;27.32;44.57;99135.75;5032860;28;20181;-87
2022/08/10 06:33:12;;;;;;;10.32;7.40;;;;;;;26.50;44.70;98970.88;5032100;28;20775;-87
2022/08/10 06:35:39;;;;;;;11.93;7.25;;;;;;;26.78;44.02;98968.38;5028963;28;20208;-87
2022/08/10 06:38:07;;;;;;;9.45;7.40;;;;;;;27.41;43.82;99060.09;5032463;28;20196;-87
2022/08/10 06:40:42;;;;;;;8.98;7.72;;;;;;;28.04;43.62;99145.81;5032947;28;20208;-87
2022/08/10 06:43:12;;;;;;;12.30;7.57;;;;;;;27.69;43.17;99054.06;5013851;28;20279;-89
2022/08/10 06:45:45;;;;;;;13.82;7.65;;;;;;;27.93;42.24;99054.16;5037558;28;20180;-84
2022/08/10 06:48:33;;;;;;;12.73;7.60;;;;;;;28.31;42.61;99157.09;5028646;28;20264;-84
2022/08/10 06:51:01;;;;;;;14.68;7.63;;;;;;;27.47;43.50;99020.91;5044199;28;20655;-85
2022/08/10 06:53:32;;;;;;;9.68;7.30;;;;;;;27.77;43.04;99081.53;5047139;28;20224;-83
2022/08/10 06:56:02;;;;;;;9.35;7.60;;;;;;;28.25;42.61;99146.88;5044707;28;20179;-85
2022/08/10 06:58:44;;;;;;;9.88;7.57;;;;;;;27.11;42.58;98969.16;5027565;28;20176;-86
2022/08/10 07:01:13;;;;;;;12.90;7.85;;;;;;;28.37;42.37;99112.63;5044892;28;20235;-86
2022/08/10 07:03:46;;;;;;;13.05;7.60;;;;;;;29.02;41.35;99166.91;5042052;28;20176;-85
2022/08/10 07:06:14;;;;;;;10.57;7.55;;;;;;;28.58;41.19;99046.78;5042747;28;20197;-86
2022/08/10 07:08:40;;;;;;;12.55;7.70;;;;;;;29.97;39.42;99176.47;5045257;28;20184;-84
2022/08/10 07:11:07;;;;;;;9.25;7.13;;;;;;;29.51;37.65;99065.13;5044338;28;20183;-86
2022/08/10 07:13:36;;;;;;;10.38;7.50;;;;;;;30.34;37.45;99176.75;5039744;28;20231;-85
2022/08/10 07:16:04;;;;;;;9.23;7.32;;;;;;;29.93;37.43;99077.47;5065309;28;20206;-86
2022/08/10 07:18:32;;;;;;;10.00;7.28;;;;;;;30.47;37.07;99152.78;5063343;28;20184;-84
2022/08/10 07:21:00;;;;;;;9.57;7.28;;;;;;;30.25;36.26;99062.19;5061826;28;20210;-86
2022/08/10 07:23:28;;;;;;;9.25;7.13;;;;;;;29.55;35.91;99001.50;5061198;28;20188;-84
2022/08/10 07:25:54;;;;;;;10.80;7.50;;;;;;;30.32;37.22;99181.22;5058896;28;20176;-86
2022/08/10 07:28:21;;;;;;;10.45;7.25;;;;;;;30.42;36.89;99163.41;5062789;28;20189;-84
2022/08/10 07:30:50;;;;;;;11.73;7.72;;;;;;;30.27;36.37;99056.91;5063309;28;20179;-84
2022/08/10 07:33:18;;;;;;;14.23;7.60;;;;;;;31.08;36.15;99161.53;5060902;28;20176;-84
2022/08/10 07:35:46;;;;;;;8.18;7.00;;;;;;;30.99;35.46;99112.28;5061725;28;20187;-84
2022/08/10 07:38:22;;;;;;;9.77;7.63;;;;;;;31.91;34.76;99182.22;5059972;28;20294;-87
2022/08/10 07:40:49;;;;;;;9.60;7.50;;;;;;;31.95;35.14;99180.28;5057838;28;20279;-86
2022/08/10 07:43:17;;;;;;;10.25;7.55;;;;;;;31.74;33.96;99121.91;5059820;28;20241;-83
2022/08/10 07:45:45;;;;;;;10.88;7.57;;;;;;;31.39;34.63;99037.16;5059636;28;20186;-84
2022/08/10 07:48:22;;;;;;;10.65;7.35;;;;;;;32.02;34.45;99159.03;5058019;28;20733;-85
2022/08/10 07:50:50;;;;;;;10.75;7.32;;;;;;;31.48;34.14;99055.06;5060274;28;20229;-85
2022/08/10 07:53:23;;;;;;;12.13;6.40;;;;;;;32.43;32.21;99171.91;5061277;28;20194;-83
2022/08/10 07:55:50;;;;;;;11.73;7.00;;;;;;;31.70;33.10;99081.06;5062367;28;20380;-84
2022/08/10 07:58:18;;;;;;;7.95;5.75;;;;;;;32.42;33.42;99180.69;5059438;28;20184;-85
2022/08/10 08:00:46;;;;;;;7.30;5.88;;;;;;;31.66;33.08;99100.47;5043886;28;20204;-86
2022/08/10 08:03:14;;;;;;;8.10;6.00;;;;;;;31.23;32.73;99032.69;5065842;28;20183;-85
2022/08/10 08:05:41;;;;;;;7.88;5.97;;;;;;;29.29;33.66;98769.53;5066918;28;20172;-85
2022/08/10 08:08:08;;;;;;;9.35;6.28;;;;;;;31.01;33.72;99013.66;5068345;28;20168;-85
2022/08/10 08:10:34;;;;;;;8.13;6.30;;;;;;;32.14;33.37;99173.28;5041084;28;20203;-87
2022/08/10 08:13:01;;;;;;;7.80;6.10;;;;;;;32.10;32.81;99101.88;5050214;28;20207;-84
2022/08/10 08:15:29;;;;;;;7.43;6.00;;;;;;;32.97;31.80;99189.31;5034308;28;20220;-85
2022/08/10 08:17:55;;;;;;;7.53;6.10;;;;;;;32.09;31.51;99016.31;5036940;28;20182;-87
2022/08/10 08:20:22;;;;;;;7.93;6.45;;;;;;;33.07;31.16;99165.16;5037771;28;20187;-84
2022/08/10 08:22:49;;;;;;;9.88;6.03;;;;;;;32.84;31.97;99168.09;5036445;28;20189;-84
2022/08/10 08:25:18;;;;;;;8.93;6.03;;;;;;;33.03;31.55;99168.88;5041719;28;20204;-87
2022/08/10 08:27:45;;;;;;;6.53;5.93;;;;;;;33.37;31.38;99162.75;5039763;28;20233;-85
2022/08/10 08:30:13;;;;;;;8.15;6.70;;;;;;;31.03;32.18;98805.22;5038963;28;20178;-84
2022/08/10 08:32:41;;;;;;;9.00;6.82;;;;;;;32.06;32.05;98977.19;5038626;28;20312;-84
2022/08/10 08:35:08;;;;;;;9.00;6.68;;;;;;;32.75;32.73;99160.69;5039878;28;20231;-85
2022/08/10 08:37:39;;;;;;;8.68;6.30;;;;;;;32.84;31.80;99164.63;5040914;28;20163;-84
2022/08/10 08:40:09;;;;;;;8.98;6.38;;;;;;;32.36;32.36;99118.09;5035598;28;20284;-85
2022/08/10 08:42:50;;;;;;;9.60;6.85;;;;;;;32.76;32.08;99153.69;5037770;28;20333;-85
2022/08/10 08:45:18;;;;;;;9.20;6.85;;;;;;;33.01;31.54;99156.75;5040635;28;20562;-83
2022/08/10 08:48:10;;;;;;;10.27;6.55;;;;;;;33.04;31.37;99153.97;5040973;28;20672;-83
2022/08/10 08:50:36;;;;;;;10.18;6.70;;;;;;;33.38;31.02;99147.81;5040140;28;20225;-85
2022/08/10 08:53:16;;;;;;;10.70;6.40;;;;;;;32.04;29.98;98921.41;5039848;28;20186;-84
2022/08/10 08:56:01;;;;;;;10.02;6.55;;;;;;;33.49;31.15;99142.84;5039297;28;20192;-84
2022/08/10 08:58:55;;;;;;;10.43;6.47;;;;;;;33.97;30.83;99147.25;5039779;28;20162;-84
2022/08/10 09:01:23;;;;;;;9.02;6.90;;;;;;;34.30;29.98;99148.03;5036569;28;20194;-84
2022/08/10 09:04:00;;;;;;;11.10;6.53;;;;;;;34.23;29.82;99144.03;5033033;28;20170;-84
2022/08/10 09:06:45;;;;;;;8.55;6.53;;;;;;;33.63;30.86;99137.75;5034580;28;20235;-83
2022/08/10 09:09:16;;;;;;;9.48;6.60;;;;;;;33.66;30.13;99137.56;5036926;28;20166;-86
2022/08/10 09:12:03;;;;;;;8.45;6.45;;;;;;;33.58;30.50;99142.41;5017820;28;20155;-84
2022/08/10 09:14:54;;;;;;;7.47;6.43;;;;;;;33.59;30.44;99133.59;5017685;28;20243;-85
2022/08/10 09:17:34;;;;;;;10.27;6.50;;;;;;;32.14;30.16;98844.97;5042041;28;20177;-88
2022/08/10 09:20:07;;;;;;;8.32;6.47;;;;;;;34.22;29.56;99140.56;5037729;28;20613;-85
2022/08/10 09:22:45;;;;;;;9.35;6.60;;;;;;;33.79;29.62;99125.47;5037071;28;20201;-83
2022/08/10 09:25:21;;;;;;;8.32;6.55;;;;;;;33.06;29.54;99006.06;5033143;28;20178;-84
2022/08/10 09:27:58;;;;;;;8.50;6.70;;;;;;;33.46;30.17;99129.91;5034106;28;20236;-84
2022/08/10 09:30:42;;;;;;;10.77;7.22;;;;;;;32.65;30.10;99013.47;5038411;28;20188;-82
2022/08/10 09:33:15;;;;;;;12.05;6.88;;;;;;;33.42;30.54;99087.22;5038700;28;20188;-85
2022/08/10 09:35:52;;;;;;;7.47;6.65;;;;;;;33.95;29.58;99128.97;5035775;28;20569;-83
2022/08/10 09:38:44;;;;;;;9.05;6.75;;;;;;;33.49;30.00;99129.72;5037026;28;20181;-84
2022/08/10 09:41:36;;;;;;;12.23;6.70;;;;;;;34.20;29.80;99133.72;5041641;28;20209;-85
2022/08/10 09:44:12;;;;;;;10.38;6.55;;;;;;;34.17;29.97;99134.72;5039932;28;20181;-85
2022/08/10 09:46:56;;;;;;;9.80;6.57;;;;;;;34.28;29.02;99134.94;5031783;28;20558;-84
2022/08/10 09:49:50;;;;;;;9.90;6.18;;;;;;;34.67;28.56;99128.34;5037773;28;20499;-84
2022/08/10 09:52:30;;;;;;;9.32;6.20;;;;;;;34.95;28.84;99125.78;5030486;28;20190;-84
2022/08/10 09:55:13;;;;;;;9.43;6.20;;;;;;;35.00;28.96;99102.66;5031197;28;20224;-82
2022/08/10 09:57:58;;;;;;;7.28;6.18;;;;;;;34.91;27.85;99121.66;5034075;28;20205;-85
2022/08/10 10:00:33;;;;;;;7.53;6.50;;;;;;;32.89;28.57;98798.03;5040631;28;20751;-85
2022/08/10 10:03:12;;;;;;;8.23;5.97;;;;;;;35.03;28.38;99114.78;5037088;28;20979;-85
2022/08/10 10:05:48;;;;;;;8.02;6.20;;;;;;;35.11;28.00;99117.84;5035657;28;20174;-83
2022/08/10 10:08:29;;;;;;;7.25;6.50;;;;;;;34.30;28.29;98998.16;5034649;28;20192;-84
2022/08/10 10:11:06;;;;;;;7.70;5.95;;;;;;;34.85;29.14;99114.97;5036026;28;20182;-84
2022/08/10 10:14:06;;;;;;;9.20;6.10;;;;;;;34.85;28.88;99111.50;5037082;28;20178;-86
2022/08/10 10:16:45;;;;;;;7.25;6.55;;;;;;;34.68;28.81;99112.50;5048998;28;20217;-86
2022/08/10 10:19:48;;;;;;;10.38;6.10;;;;;;;35.67;28.03;99109.09;5053626;28;20271;-85
2022/08/10 10:22:51;;;;;;;10.63;6.40;;;;;;;35.09;28.93;99111.81;5058336;28;20267;-86
2022/08/10 10:25:36;;;;;;;10.75;6.70;;;;;;;34.31;29.93;99115.56;5061876;28;20835;-83
2022/08/10 10:28:28;;;;;;;9.85;6.45;;;;;;;33.36;30.45;99039.44;5058498;28;20183;-88
2022/08/10 10:31:34;;;;;;;7.95;6.28;;;;;;;33.70;30.21;99103.22;5054063;28;20176;-83
2022/08/10 10:34:26;;;;;;;8.18;6.20;;;;;;;33.34;31.55;99106.94;5053360;28;20231;-85
2022/08/10 10:36:53;;;;;;;7.45;5.88;;;;;;;31.77;31.50;98873.03;5055450;28;20185;-84
2022/08/10 10:39:23;;;;;;;7.38;6.20;;;;;;;32.30;30.93;98975.13;5054515;28;20201;-83
2022/08/10 10:42:07;;;;;;;8.55;6.30;;;;;;;31.84;31.49;98916.28;5037100;28;20205;-83
2022/08/10 10:44:51;;;;;;;8.75;6.20;;;;;;;33.10;31.25;99095.97;5056163;28;20227;-84
2022/08/10 10:47:34;;;;;;;7.75;6.40;;;;;;;33.35;31.02;99082.38;5056244;28;20264;-83
2022/08/10 10:50:17;;;;;;;7.30;6.25;;;;;;;33.54;31.08;99094.41;5058128;28;20227;-83
2022/08/10 10:53:04;;;;;;;10.85;8.45;;;;;;;33.77;31.26;99086.16;5059507;28;20208;-82
2022/08/10 10:55:42;;;;;;;7.50;6.40;;;;;;;32.69;31.23;98965.19;5058522;28;20185;-82
2022/08/10 10:58:32;;;;;;;7.20;6.50;;;;;;;33.62;31.23;99088.78;5058539;28;20201;-85
2022/08/10 11:01:09;;;;;;;9.73;6.50;;;;;;;32.79;31.05;98914.88;5060073;28;20201;-83
2022/08/10 11:03:56;;;;;;;8.10;6.72;;;;;;;33.43;32.04;99088.06;5043699;28;20238;-83
2022/08/10 11:06:51;;;;;;;8.93;6.50;;;;;;;32.85;32.60;99083.25;5060904;28;20182;-82
2022/08/10 11:09:22;;;;;;;9.25;6.60;;;;;;;31.28;32.63;98851.03;4959280;28;20281;-82
2022/08/10 11:11:53;;;;;;;10.30;6.68;;;;;;;31.46;33.27;98940.88;4965084;29;20180;-84
2022/08/10 11:14:40;;;;;;;7.82;6.50;;;;;;;31.64;33.32;99005.47;4950177;29;20252;-81
2022/08/10 11:17:30;;;;;;;9.13;6.47;;;;;;;31.79;35.09;99108.59;4961970;28;20214;-82
2022/08/10 11:20:08;;;;;;;19.73;7.78;;;;;;;30.51;38.46;99113.41;4963870;29;20275;-84
2022/08/10 11:23:03;;;;;;;31.00;7.85;;;;;;;27.77;41.20;98906.38;4962134;28;20306;-83
2022/08/10 11:25:28;;;;;;;14.45;7.10;;;;;;;28.81;41.34;99134.63;4952592;29;20188;-83
2022/08/10 11:28:11;;;;;;;17.77;7.53;;;;;;;27.14;42.11;98932.66;4967210;28;20220;-82
2022/08/10 11:31:13;;;;;;;8.63;5.75;;;;;;;28.04;42.17;99124.97;4962807;29;20311;-82
2022/08/10 11:34:00;;;;;;;8.07;6.03;;;;;;;24.99;55.05;99176.53;4961480;29;20195;-84
2022/08/10 11:36:52;;;;;;;14.67;6.63;;;;;;;22.75;65.35;99040.91;4964124;28;20194;-83
2022/08/10 11:39:23;;;;;;;11.77;6.17;;;;;;;22.88;69.03;99176.72;4960001;29;20700;-83
2022/08/10 11:41:55;;;;;;;11.90;6.43;;;;;;;21.27;71.59;98959.63;4964370;29;20228;-83
2022/08/10 11:44:36;;;;;;;12.43;6.60;;;;;;;22.92;74.08;99187.91;4960853;29;20209;-82
2022/08/10 11:47:17;;;;;;;10.07;6.80;;;;;;;22.08;74.17;98991.69;5053012;28;20197;-81
2022/08/10 11:50:01;;;;;;;10.33;6.87;;;;;;;23.14;72.48;99082.66;5062332;28;20201;-82
2022/08/10 11:52:43;;;;;;;11.53;7.17;;;;;;;23.70;76.45;99097.47;5065517;28;20166;-84
2022/08/10 11:55:20;;;;;;;11.43;6.90;;;;;;;23.85;75.82;99080.00;5066857;28;20200;-82
2022/08/10 11:57:48;;;;;;;12.43;7.33;;;;;;;23.73;74.37;99031.06;5065130;28;20181;-82